Terminal Aerodrome Forecast
Issued by NWS Denver/Boulder, CO

Home | Current Version | Previous Version | Graphics & Text | Print | Product List | Glossary On
Versions: 1 2 3 4 5 6 7 8 9 10 11 12 13 14 15 16 17 18 19 20 21 22 23 24 25 26 27 28 29 30 31 32 33 34 35 36 37 38 39 40 41 42 43 44 45 46 47 48 49 50
000
FTUS45 KBOU 140818 AAB
TAFDEN
TAF AMD
KDEN 140818Z 1408/1512 11012KT P6SM FEW080 SCT250
     FM141000 15008KT P6SM FEW120 SCT180
     FM141500 18008KT P6SM SCT120 BKN180
     FM142200 29012KT P6SM FEW080 BKN120
     FM150200 34008KT P6SM BKN080 BKN120
     FM150500 24007KT P6SM SCT120 SCT220=

USA.gov is the U.S. government's official web portal to all federal, state and local government web resources and services.